createdAt,value
2017-07-23T00:00:56.442Z,3.47
2017-07-23T00:03:26.566Z,2.83
2017-07-23T00:05:55.790Z,3.33
2017-07-23T00:08:25.017Z,3.10
2017-07-23T00:10:54.253Z,3.27
2017-07-23T00:13:23.462Z,2.67
2017-07-23T00:15:52.702Z,3.23
2017-07-23T00:18:21.906Z,3.00
2017-07-23T00:20:51.114Z,3.10
2017-07-23T00:23:20.318Z,2.90
2017-07-23T00:25:49.557Z,3.20
2017-07-23T00:28:18.825Z,2.70
2017-07-23T00:30:49.010Z,3.10
2017-07-23T00:33:18.238Z,2.90
2017-07-23T00:35:47.470Z,3.47
2017-07-23T00:38:16.701Z,2.90
2017-07-23T00:40:45.918Z,2.90
2017-07-23T00:43:16.075Z,3.13
2017-07-23T00:45:45.282Z,3.00
2017-07-23T00:48:14.531Z,3.00
2017-07-23T00:50:43.785Z,2.73
2017-07-23T00:53:13.019Z,2.57
2017-07-23T00:55:42.262Z,3.27
2017-07-23T00:58:11.486Z,2.90
2017-07-23T01:00:40.734Z,3.57
2017-07-23T01:03:09.958Z,3.90
2017-07-23T01:05:39.231Z,3.17
2017-07-23T01:08:08.474Z,3.23
2017-07-23T01:10:38.203Z,3.23
2017-07-23T01:13:07.405Z,3.20
2017-07-23T01:15:36.658Z,3.43
2017-07-23T01:18:05.938Z,3.37
2017-07-23T01:20:35.917Z,3.47
2017-07-23T01:23:05.546Z,3.33
2017-07-23T01:25:34.764Z,3.40
2017-07-23T01:28:03.994Z,3.07
2017-07-23T01:30:33.369Z,5.50
2017-07-23T01:33:03.334Z,2.97
2017-07-23T01:35:32.830Z,3.40
2017-07-23T01:38:02.798Z,3.47
2017-07-23T01:40:32.070Z,2.87
2017-07-23T01:43:01.321Z,3.27
2017-07-23T01:45:30.570Z,3.20
2017-07-23T01:47:59.830Z,3.20
2017-07-23T01:50:29.081Z,3.20
2017-07-23T01:52:58.329Z,2.90
2017-07-23T01:55:27.646Z,4.13
2017-07-23T01:57:56.962Z,3.47
2017-07-23T02:00:26.186Z,3.70
2017-07-23T02:02:55.442Z,3.50
2017-07-23T02:05:25.657Z,3.97
2017-07-23T02:07:54.871Z,3.17
2017-07-23T02:10:24.062Z,4.07
2017-07-23T02:12:54.427Z,3.40
2017-07-23T02:15:23.686Z,6.27
2017-07-23T02:17:52.910Z,3.13
2017-07-23T02:20:22.126Z,3.50
2017-07-23T02:22:51.566Z,3.50
2017-07-23T02:25:20.758Z,3.80
2017-07-23T02:27:49.990Z,3.83
2017-07-23T02:30:19.227Z,3.40
2017-07-23T02:32:49.306Z,3.80
2017-07-23T02:35:18.546Z,3.87
2017-07-23T02:37:47.778Z,3.47
2017-07-23T02:40:17.310Z,3.73
2017-07-23T02:42:46.526Z,3.63
2017-07-23T02:45:15.790Z,3.50
2017-07-23T02:47:44.998Z,3.40
2017-07-23T02:50:15.063Z,4.50
2017-07-23T02:52:45.013Z,3.43
2017-07-23T02:55:14.221Z,3.50
2017-07-23T02:57:43.433Z,3.87
2017-07-23T03:00:13.221Z,3.70
2017-07-23T03:02:42.435Z,3.70
2017-07-23T03:05:11.659Z,3.90
2017-07-23T03:07:40.878Z,4.30
2017-07-23T03:10:10.139Z,3.40
2017-07-23T03:12:39.345Z,3.97
2017-07-23T03:15:08.554Z,4.23
2017-07-23T03:17:37.794Z,3.93
2017-07-23T03:20:07.026Z,4.17
2017-07-23T03:22:36.254Z,3.50
2017-07-23T03:25:05.458Z,4.03
2017-07-23T03:27:35.658Z,4.03
2017-07-23T03:30:05.066Z,3.90
2017-07-23T03:32:34.426Z,4.87
2017-07-23T03:35:03.654Z,3.73
2017-07-23T03:37:33.909Z,4.40
2017-07-23T03:40:03.134Z,5.10
2017-07-23T03:42:32.342Z,4.40
2017-07-23T03:45:01.591Z,5.10
2017-07-23T03:47:30.802Z,4.17
2017-07-23T03:50:00.190Z,4.50
2017-07-23T03:52:30.010Z,5.50
2017-07-23T03:54:59.261Z,4.60
2017-07-23T03:57:28.438Z,4.77
2017-07-23T03:59:57.666Z,4.93
2017-07-23T04:02:26.906Z,4.47
2017-07-23T04:04:56.138Z,4.47
2017-07-23T04:07:25.594Z,4.57
2017-07-23T04:09:54.762Z,5.10
2017-07-23T04:12:23.982Z,4.60
2017-07-23T04:14:53.729Z,5.37
2017-07-23T04:17:22.978Z,5.37
2017-07-23T04:19:52.191Z,4.80
2017-07-23T04:22:21.402Z,5.17
2017-07-23T04:24:50.637Z,4.50
2017-07-23T04:27:19.881Z,4.90
2017-07-23T04:29:49.078Z,5.07
2017-07-23T04:32:18.349Z,4.83
2017-07-23T04:34:48.486Z,4.30
2017-07-23T04:37:17.730Z,4.90
2017-07-23T04:39:46.969Z,5.13
2017-07-23T04:42:16.166Z,4.83
2017-07-23T04:44:45.385Z,5.60
2017-07-23T04:47:14.619Z,5.03
2017-07-23T04:49:43.994Z,5.10
2017-07-23T04:52:13.227Z,5.17
2017-07-23T04:54:42.455Z,4.70
2017-07-23T04:57:11.674Z,7.33
2017-07-23T04:59:40.858Z,5.23
2017-07-23T05:02:11.095Z,5.30
2017-07-23T05:04:40.327Z,5.60
2017-07-23T05:07:09.550Z,5.53
2017-07-23T05:09:38.809Z,5.43
2017-07-23T05:12:08.034Z,5.53
2017-07-23T05:14:39.283Z,5.50
2017-07-23T05:17:08.478Z,5.23
2017-07-23T05:19:37.718Z,5.57
2017-07-23T05:22:06.935Z,5.23
2017-07-23T05:24:36.145Z,6.10
2017-07-23T05:27:05.362Z,5.50
2017-07-23T05:29:34.798Z,5.53
2017-07-23T05:32:04.026Z,6.10
2017-07-23T05:34:33.335Z,5.63
2017-07-23T05:37:02.598Z,5.60
2017-07-23T05:39:31.818Z,5.93
2017-07-23T05:42:02.022Z,6.13
2017-07-23T05:44:31.230Z,5.13
2017-07-23T05:47:00.422Z,5.83
2017-07-23T05:49:29.682Z,5.40
2017-07-23T05:51:58.910Z,5.57
2017-07-23T05:54:28.085Z,5.73
2017-07-23T05:56:58.070Z,5.43
2017-07-23T05:59:27.289Z,5.50
2017-07-23T06:01:57.273Z,5.70
2017-07-23T06:04:26.495Z,5.70
2017-07-23T06:06:55.694Z,4.80
2017-07-23T06:09:26.575Z,5.80
2017-07-23T06:11:55.790Z,5.30
2017-07-23T06:14:25.507Z,5.70
2017-07-23T06:16:54.749Z,5.40
2017-07-23T06:19:23.944Z,5.20
2017-07-23T06:21:53.185Z,5.77
2017-07-23T06:24:22.435Z,5.33
2017-07-23T06:26:51.673Z,5.67
2017-07-23T06:29:20.899Z,6.03
2017-07-23T06:31:50.166Z,5.50
2017-07-23T06:34:20.477Z,6.03
2017-07-23T06:36:49.722Z,6.80
2017-07-23T06:39:18.966Z,7.50
2017-07-23T06:41:48.186Z,6.57
2017-07-23T06:44:17.397Z,7.30
2017-07-23T06:46:47.782Z,7.50
2017-07-23T06:49:16.990Z,7.00
2017-07-23T06:51:47.005Z,6.53
2017-07-23T06:54:16.230Z,6.30
2017-07-23T06:56:46.197Z,6.70
2017-07-23T06:59:16.256Z,5.60
2017-07-23T07:01:47.036Z,5.70
2017-07-23T07:04:17.093Z,8.20
2017-07-23T07:06:47.173Z,9.93
2017-07-23T07:09:17.433Z,6.27
2017-07-23T07:11:47.548Z,6.90
2017-07-23T07:14:17.624Z,16.00
2017-07-23T07:16:48.151Z,10.80
2017-07-23T07:19:18.676Z,7.80
2017-07-23T07:21:48.550Z,11.23
2017-07-23T07:24:17.982Z,7.10
2017-07-23T07:26:47.226Z,7.03
2017-07-23T07:29:16.737Z,7.00
2017-07-23T07:31:46.407Z,6.20
2017-07-23T07:34:15.982Z,6.57
2017-07-23T07:36:45.577Z,5.63
2017-07-23T07:39:15.604Z,5.97
2017-07-23T07:41:45.102Z,5.90
2017-07-23T07:44:15.302Z,5.33
2017-07-23T07:46:44.750Z,5.90
2017-07-23T07:49:14.162Z,5.70
2017-07-23T07:51:43.478Z,5.80
2017-07-23T07:54:12.822Z,5.30
2017-07-23T07:56:42.674Z,6.37
2017-07-23T07:59:12.206Z,5.63
2017-07-23T08:01:44.386Z,5.57
2017-07-23T08:04:14.287Z,5.13
2017-07-23T08:06:43.666Z,7.00
2017-07-23T08:09:13.314Z,5.30
2017-07-23T08:11:43.587Z,5.00
2017-07-23T08:14:13.109Z,5.93
2017-07-23T08:16:42.337Z,6.40
2017-07-23T08:19:12.882Z,6.17
2017-07-23T08:21:42.394Z,5.57
2017-07-23T08:24:12.530Z,5.30
2017-07-23T08:26:42.126Z,5.80
2017-07-23T08:29:11.906Z,5.20
2017-07-23T08:31:41.246Z,6.13
2017-07-23T08:34:10.474Z,5.53
2017-07-23T08:36:40.214Z,5.83
2017-07-23T08:39:09.741Z,6.60
2017-07-23T08:41:40.020Z,5.73
2017-07-23T08:44:09.290Z,6.20
2017-07-23T08:46:38.598Z,6.33
2017-07-23T08:49:08.148Z,5.57
2017-07-23T08:51:38.546Z,6.10
2017-07-23T08:54:08.022Z,5.90
2017-07-23T08:56:37.562Z,5.43
2017-07-23T08:59:06.883Z,5.30
2017-07-23T09:01:36.673Z,4.90
2017-07-23T09:04:05.954Z,5.63
2017-07-23T09:06:35.350Z,5.20
2017-07-23T09:09:05.214Z,5.47
2017-07-23T09:11:35.687Z,5.23
2017-07-23T09:14:04.946Z,5.00
2017-07-23T09:16:34.465Z,5.20
2017-07-23T09:19:04.694Z,5.40
2017-07-23T09:21:35.022Z,5.17
2017-07-23T09:24:05.202Z,4.93
2017-07-23T09:26:34.754Z,5.00
2017-07-23T09:29:04.701Z,5.07
2017-07-23T09:31:33.997Z,5.27
2017-07-23T09:34:03.214Z,4.90
2017-07-23T09:36:33.894Z,4.77
2017-07-23T09:39:03.977Z,5.50
2017-07-23T09:41:33.210Z,4.80
2017-07-23T09:44:02.739Z,5.70
2017-07-23T09:46:32.114Z,5.03
2017-07-23T09:49:05.374Z,4.90
2017-07-23T09:51:35.166Z,4.97
2017-07-23T09:54:04.418Z,4.63
2017-07-23T09:56:34.143Z,5.10
2017-07-23T09:59:03.906Z,5.03
2017-07-23T10:01:33.958Z,5.90
2017-07-23T10:04:03.186Z,4.97
2017-07-23T10:06:32.638Z,4.83
2017-07-23T10:09:01.838Z,4.90
2017-07-23T10:11:31.279Z,5.33
2017-07-23T10:14:01.762Z,5.20
2017-07-23T10:16:31.721Z,4.90
2017-07-23T10:19:01.149Z,4.43
2017-07-23T10:21:30.559Z,5.53
2017-07-23T10:24:00.340Z,5.10
2017-07-23T10:26:30.154Z,4.30
2017-07-23T10:28:59.594Z,5.10
2017-07-23T10:31:29.496Z,5.37
2017-07-23T10:33:59.102Z,5.20
2017-07-23T10:36:28.386Z,5.03
2017-07-23T10:38:58.114Z,5.43
2017-07-23T10:41:28.536Z,6.03
2017-07-23T10:43:58.133Z,4.83
2017-07-23T10:46:27.582Z,5.17
2017-07-23T10:48:57.033Z,5.50
2017-07-23T10:51:26.542Z,5.73
2017-07-23T10:53:56.021Z,5.30
2017-07-23T10:56:25.258Z,4.97
2017-07-23T10:58:54.629Z,7.33
2017-07-23T11:01:24.138Z,5.57
2017-07-23T11:03:53.370Z,5.10
2017-07-23T11:06:22.742Z,5.67
2017-07-23T11:08:52.021Z,5.37
2017-07-23T11:11:21.358Z,6.00
2017-07-23T11:13:51.385Z,5.67
2017-07-23T11:16:20.854Z,6.80
2017-07-23T11:18:50.498Z,5.20
2017-07-23T11:21:26.102Z,6.00
2017-07-23T11:23:55.593Z,5.40
2017-07-23T11:26:25.841Z,6.33
2017-07-23T11:28:55.153Z,5.90
2017-07-23T11:31:24.660Z,5.73
2017-07-23T11:33:53.910Z,5.97
2017-07-23T11:36:24.185Z,6.00
2017-07-23T11:38:53.498Z,5.70
2017-07-23T11:41:22.806Z,5.53
2017-07-23T11:43:52.862Z,5.30
2017-07-23T11:46:22.338Z,6.00
2017-07-23T11:48:51.980Z,5.90
2017-07-23T11:51:21.421Z,6.07
2017-07-23T11:53:51.486Z,5.20
2017-07-23T11:56:20.902Z,5.37
2017-07-23T11:58:51.246Z,5.30
2017-07-23T12:01:20.738Z,5.70
2017-07-23T12:03:51.077Z,5.30
2017-07-23T12:06:21.358Z,5.10
2017-07-23T12:08:51.206Z,6.07
2017-07-23T12:11:20.538Z,5.10
2017-07-23T12:13:51.306Z,5.70
2017-07-23T12:16:21.021Z,5.10
2017-07-23T12:18:50.884Z,5.83
2017-07-23T12:21:21.406Z,5.40
2017-07-23T12:23:50.811Z,5.57
2017-07-23T12:26:20.142Z,7.23
2017-07-23T12:28:49.476Z,5.27
2017-07-23T12:31:19.383Z,5.03
2017-07-23T12:33:50.326Z,5.20
2017-07-23T12:36:20.018Z,5.10
2017-07-23T12:38:50.273Z,5.07
2017-07-23T12:41:20.539Z,5.20
2017-07-23T12:43:51.005Z,5.40
2017-07-23T12:46:20.334Z,4.73
2017-07-23T12:48:51.585Z,4.77
2017-07-23T12:51:22.045Z,5.80
2017-07-23T12:53:52.372Z,6.07
2017-07-23T12:56:21.858Z,5.43
2017-07-23T12:58:52.166Z,5.40
2017-07-23T13:01:21.469Z,4.63
2017-07-23T13:03:50.786Z,5.37
2017-07-23T13:06:20.102Z,5.30
2017-07-23T13:08:50.962Z,5.13
2017-07-23T13:11:20.649Z,5.97
2017-07-23T13:13:49.891Z,5.30
2017-07-23T13:16:19.690Z,5.60
2017-07-23T13:18:49.923Z,5.93
2017-07-23T13:21:22.277Z,5.47
2017-07-23T13:23:51.686Z,6.60
2017-07-23T13:26:21.233Z,6.20
2017-07-23T13:28:51.580Z,6.73
2017-07-23T13:31:22.023Z,5.57
2017-07-23T13:33:51.642Z,6.40
2017-07-23T13:36:21.124Z,5.97
2017-07-23T13:38:50.854Z,6.10
2017-07-23T13:41:21.417Z,6.23
2017-07-23T13:43:50.858Z,5.90
2017-07-23T13:46:20.574Z,6.10
2017-07-23T13:48:49.938Z,6.57
2017-07-23T13:51:20.478Z,6.50
2017-07-23T13:53:49.834Z,6.03
2017-07-23T13:56:19.351Z,6.30
2017-07-23T13:58:48.830Z,5.43
2017-07-23T14:01:18.833Z,5.63
2017-07-23T14:03:48.922Z,5.73
2017-07-23T14:06:18.282Z,6.27
2017-07-23T14:08:47.998Z,6.20
2017-07-23T14:11:17.462Z,5.43
2017-07-23T14:13:46.838Z,5.63
2017-07-23T14:16:16.422Z,6.07
2017-07-23T14:18:46.894Z,6.57
2017-07-23T14:21:16.174Z,5.70
2017-07-23T14:23:45.775Z,6.77
2017-07-23T14:26:15.330Z,5.80
2017-07-23T14:28:44.674Z,5.90
2017-07-23T14:31:14.321Z,5.57
2017-07-23T14:33:43.618Z,6.83
2017-07-23T14:36:13.178Z,5.60
2017-07-23T14:38:42.810Z,5.83
2017-07-23T14:41:13.469Z,6.30
2017-07-23T14:43:43.280Z,6.10
2017-07-23T14:46:12.602Z,6.00
2017-07-23T14:48:41.929Z,6.03
2017-07-23T14:51:11.793Z,5.43
2017-07-23T14:53:41.114Z,7.07
2017-07-23T14:56:16.845Z,6.47
2017-07-23T14:58:46.310Z,6.03
2017-07-23T15:01:15.698Z,5.80
2017-07-23T15:03:47.621Z,6.03
2017-07-23T15:06:17.197Z,6.23
2017-07-23T15:08:46.694Z,6.20
2017-07-23T15:11:15.982Z,5.77
2017-07-23T15:13:45.397Z,5.90
2017-07-23T15:16:15.132Z,5.63
2017-07-23T15:18:44.386Z,5.37
2017-07-23T15:21:15.405Z,6.13
2017-07-23T15:23:45.034Z,6.20
2017-07-23T15:26:14.449Z,5.70
2017-07-23T15:28:44.094Z,6.50
2017-07-23T15:31:13.391Z,7.93
2017-07-23T15:33:42.929Z,5.57
2017-07-23T15:36:12.303Z,6.03
2017-07-23T15:38:41.674Z,5.50
2017-07-23T15:41:11.208Z,4.87
2017-07-23T15:43:40.413Z,5.27
2017-07-23T15:46:09.937Z,5.97
2017-07-23T15:48:39.206Z,4.67
2017-07-23T15:51:08.739Z,9.50
2017-07-23T15:53:38.350Z,5.53
2017-07-23T15:56:07.693Z,7.20
2017-07-23T15:58:37.165Z,4.80
2017-07-23T16:01:08.434Z,4.70
2017-07-23T16:03:40.105Z,5.13
2017-07-23T16:06:09.495Z,4.50
2017-07-23T16:08:38.750Z,5.43
2017-07-23T16:11:07.991Z,6.60
2017-07-23T16:13:38.290Z,7.60
2017-07-23T16:16:09.726Z,7.60
2017-07-23T16:18:39.207Z,5.20
2017-07-23T16:21:08.589Z,5.10
2017-07-23T16:23:37.979Z,5.40
2017-07-23T16:26:08.314Z,4.97
2017-07-23T16:28:37.782Z,5.17
2017-07-23T16:31:08.590Z,5.17
2017-07-23T16:33:37.938Z,5.40
2017-07-23T16:36:09.287Z,6.47
2017-07-23T16:38:38.794Z,5.20
2017-07-23T16:41:08.825Z,4.87
2017-07-23T16:43:39.047Z,6.33
2017-07-23T16:46:09.650Z,4.10
2017-07-23T16:48:39.174Z,4.60
2017-07-23T16:51:08.497Z,4.30
2017-07-23T16:53:37.875Z,4.60
2017-07-23T16:56:07.358Z,4.60
2017-07-23T16:58:37.762Z,4.57
2017-07-23T17:01:07.549Z,4.90
2017-07-23T17:03:37.118Z,4.40
2017-07-23T17:06:07.328Z,4.27
2017-07-23T17:08:38.842Z,4.30
2017-07-23T17:11:08.802Z,5.03
2017-07-23T17:13:38.658Z,4.70
2017-07-23T17:16:08.233Z,4.13
2017-07-23T17:18:40.196Z,5.30
2017-07-23T17:21:10.013Z,4.10
2017-07-23T17:23:39.914Z,5.33
2017-07-23T17:26:09.246Z,4.40
2017-07-23T17:28:38.513Z,4.17
2017-07-23T17:31:07.866Z,7.00
2017-07-23T17:33:40.666Z,4.27
2017-07-23T17:36:10.146Z,4.20
2017-07-23T17:38:39.505Z,3.90
2017-07-23T17:41:09.110Z,3.90
2017-07-23T17:43:38.879Z,4.43
2017-07-23T17:46:09.193Z,5.17
2017-07-23T17:48:38.540Z,4.00
2017-07-23T17:51:08.062Z,4.27
2017-07-23T17:53:38.265Z,3.43
2017-07-23T17:56:08.594Z,3.40
2017-07-23T17:58:38.106Z,4.03
2017-07-23T18:01:07.385Z,4.40
2017-07-23T18:03:38.279Z,3.60
2017-07-23T18:06:07.635Z,3.80
2017-07-23T18:08:37.193Z,3.97
2017-07-23T18:11:06.673Z,3.63
2017-07-23T18:13:36.158Z,3.90
2017-07-23T18:16:05.521Z,3.27
2017-07-23T18:18:35.585Z,3.57
2017-07-23T18:21:05.623Z,3.10
2017-07-23T18:23:35.877Z,3.93
2017-07-23T18:26:06.355Z,3.57
2017-07-23T18:28:36.586Z,4.00
2017-07-23T18:31:06.510Z,3.53
2017-07-23T18:33:36.966Z,3.47
2017-07-23T18:36:06.910Z,4.60
2017-07-23T18:38:37.115Z,4.37
2017-07-23T18:41:07.271Z,3.50
2017-07-23T18:43:37.821Z,3.80
2017-07-23T18:46:07.191Z,3.00
2017-07-23T18:48:36.478Z,3.57
2017-07-23T18:51:06.514Z,3.60
2017-07-23T18:53:36.937Z,3.40
2017-07-23T18:56:07.042Z,3.70
2017-07-23T18:58:37.430Z,3.47
2017-07-23T19:01:07.264Z,3.60
2017-07-23T19:03:37.451Z,3.43
2017-07-23T19:06:06.986Z,3.40
2017-07-23T19:08:36.769Z,3.10
2017-07-23T19:11:06.246Z,4.40
2017-07-23T19:13:36.500Z,3.63
2017-07-23T19:16:06.661Z,3.77
2017-07-23T19:18:36.666Z,3.53
2017-07-23T19:21:06.933Z,5.23
2017-07-23T19:23:36.822Z,3.40
2017-07-23T19:26:07.643Z,4.23
2017-07-23T19:28:37.890Z,3.30
2017-07-23T19:31:07.794Z,4.83
2017-07-23T19:33:37.938Z,3.83
2017-07-23T19:36:08.130Z,3.70
2017-07-23T19:38:38.714Z,3.63
2017-07-23T19:41:07.952Z,2.87
2017-07-23T19:43:37.361Z,3.57
2017-07-23T19:46:09.514Z,3.53
2017-07-23T19:48:39.094Z,2.83
2017-07-23T19:51:08.858Z,3.20
2017-07-23T19:53:38.982Z,3.37
2017-07-23T19:56:08.682Z,3.50
2017-07-23T19:58:38.037Z,3.20
2017-07-23T20:01:07.597Z,3.13
2017-07-23T20:03:38.213Z,3.60
2017-07-23T20:06:07.773Z,3.33
2017-07-23T20:08:37.206Z,3.33
2017-07-23T20:11:06.739Z,3.37
2017-07-23T20:13:37.181Z,3.67
2017-07-23T20:16:07.086Z,5.30
2017-07-23T20:18:36.414Z,3.23
2017-07-23T20:21:05.714Z,2.83
2017-07-23T20:23:35.066Z,3.13
2017-07-23T20:26:04.520Z,3.50
2017-07-23T20:28:33.897Z,3.40
2017-07-23T20:31:03.177Z,3.67
2017-07-23T20:33:32.611Z,3.37
2017-07-23T20:36:01.882Z,2.90
2017-07-23T20:38:32.117Z,4.80
2017-07-23T20:41:01.422Z,2.83
2017-07-23T20:43:30.736Z,2.83
2017-07-23T20:46:00.022Z,3.03
2017-07-23T20:48:29.325Z,3.20
2017-07-23T20:50:58.631Z,3.50
2017-07-23T20:53:27.990Z,3.67
2017-07-23T20:55:57.534Z,2.97
2017-07-23T20:58:26.997Z,2.90
2017-07-23T21:00:56.461Z,3.10
2017-07-23T21:03:25.863Z,2.80
2017-07-23T21:05:55.493Z,4.00
2017-07-23T21:08:24.790Z,3.00
2017-07-23T21:10:56.039Z,3.10
2017-07-23T21:13:25.596Z,4.27
2017-07-23T21:15:54.890Z,3.20
2017-07-23T21:18:24.542Z,3.60
2017-07-23T21:20:54.285Z,3.10
2017-07-23T21:23:23.758Z,2.93
2017-07-23T21:25:54.166Z,3.17
2017-07-23T21:28:23.534Z,2.90
2017-07-23T21:30:53.830Z,2.97
2017-07-23T21:33:24.360Z,3.20
2017-07-23T21:35:54.782Z,3.13
2017-07-23T21:38:24.401Z,3.40
2017-07-23T21:40:54.080Z,2.90
2017-07-23T21:43:24.370Z,5.33
2017-07-23T21:45:54.746Z,3.40
2017-07-23T21:48:24.142Z,3.17
2017-07-23T21:50:53.458Z,3.70
2017-07-23T21:53:23.757Z,3.33
2017-07-23T21:55:53.262Z,3.27
2017-07-23T21:58:22.625Z,3.07
2017-07-23T22:00:52.410Z,2.87
2017-07-23T22:03:22.773Z,3.30
2017-07-23T22:05:52.285Z,2.90
2017-07-23T22:08:22.280Z,3.10
2017-07-23T22:10:51.563Z,3.30
2017-07-23T22:13:22.049Z,3.17
2017-07-23T22:15:51.756Z,3.20
2017-07-23T22:18:21.974Z,7.63
2017-07-23T22:20:51.242Z,3.47
2017-07-23T22:23:20.571Z,3.10
2017-07-23T22:25:49.922Z,3.70
2017-07-23T22:28:19.483Z,3.30
2017-07-23T22:30:50.320Z,3.17
2017-07-23T22:33:19.618Z,4.37
2017-07-23T22:35:48.938Z,3.33
2017-07-23T22:38:18.470Z,4.97
2017-07-23T22:40:48.722Z,2.80
2017-07-23T22:43:19.066Z,3.50
2017-07-23T22:45:48.886Z,3.60
2017-07-23T22:48:18.405Z,4.10
2017-07-23T22:50:47.754Z,3.40
2017-07-23T22:53:17.074Z,3.33
2017-07-23T22:55:46.427Z,3.07
2017-07-23T22:58:15.774Z,3.20
2017-07-23T23:00:45.273Z,3.50
2017-07-23T23:03:14.766Z,3.10
2017-07-23T23:05:44.265Z,3.57
2017-07-23T23:08:13.561Z,3.50
2017-07-23T23:10:43.879Z,3.60
2017-07-23T23:13:13.387Z,3.60
2017-07-23T23:15:42.629Z,3.20
2017-07-23T23:18:13.021Z,3.67
2017-07-23T23:20:42.637Z,4.30
2017-07-23T23:23:12.401Z,3.60
2017-07-23T23:25:42.090Z,3.57
2017-07-23T23:28:11.646Z,3.10
2017-07-23T23:30:41.934Z,3.47
2017-07-23T23:33:11.629Z,3.87
2017-07-23T23:35:41.090Z,3.10
2017-07-23T23:38:10.741Z,3.60
2017-07-23T23:40:39.997Z,4.00
2017-07-23T23:43:10.190Z,3.43
2017-07-23T23:45:39.545Z,3.60
2017-07-23T23:48:08.934Z,3.27
2017-07-23T23:50:38.410Z,3.10
2017-07-23T23:53:08.033Z,3.27
2017-07-23T23:55:39.457Z,4.30
2017-07-23T23:58:08.868Z,3.80
